Flight Track Log - Related Links

Times and Time Zones

All times are in EDT time to prevent confusion due to time zone crossing. See the N719SF flight status page for this flight to view local times or setup timezone preferences in your user account.

Time Position Orientation Groundspeed Altitude Reporting Facility
EDT Latitude Longitude Course Direction KTS MPH feet Rate Location/Type
Wed 07:18:28 PM 24.9967 -77.4183 172° South 169 194 1,800  Level Miami Center
Wed 07:19:28 PM 24.9653 -77.4136 172° South 128 147 2,600 750 Climbing Miami Center
Wed 07:20:28 PM 24.9297 -77.4456 219° Southwest 128 147 3,300 700 Climbing Miami Center
Wed 07:21:28 PM 24.9358 -77.4892 279° West 112 129 4,000 750 Climbing Miami Center
Wed 07:22:28 PM 24.9650 -77.5236 313° West 125 144 4,800 800 Climbing Miami Center
Wed 07:23:28 PM 25.0003 -77.5558 320° Northwest 138 159 5,600 700 Climbing Miami Center
Wed 07:24:28 PM 25.0356 -77.5836 324° Northwest 151 174 6,200 650 Climbing Miami Center
Wed 07:25:28 PM 25.0794 -77.6000 341° North 156 180 6,900 750 Climbing Miami Center
Wed 07:26:28 PM 25.1211 -77.6186 338° Northwest 156 180 7,700 550 Climbing Miami Center
Wed 07:27:28 PM 25.1628 -77.6372 338° Northwest 156 180 8,000 150 Climbing Miami Center
Wed 07:28:28 PM 25.1939 -77.6764 311° West 161 185 8,000 50 Level Miami Center
Wed 07:29:28 PM 25.2250 -77.7156 311° West 161 185 8,100  Climbing Miami Center
Wed 07:30:28 PM 25.2564 -77.7503 315° West 166 191 8,000 -50 Descending Miami Center
Wed 07:31:28 PM 25.2894 -77.7897 313° West 166 191 8,000  Level Miami Center
Wed 07:32:28 PM 25.3206 -77.8289 311° West 166 191 8,000  Level Miami Center
Wed 07:33:28 PM 25.3517 -77.8661 313° West 166 191 8,000  Level Miami Center
Wed 07:34:28 PM 25.3744 -77.9122 299° West 166 191 8,000  Level Miami Center
Wed 07:35:28 PM 25.3886 -77.9583 289° West 160 184 8,000  Level Miami Center
Wed 07:36:28 PM 25.4028 -78.0067 288° West 165 190 8,000  Level Miami Center
Wed 07:37:28 PM 25.4192 -78.0575 290° West 170 196 8,000  Level Miami Center
Wed 07:38:28 PM 25.4333 -78.1061 288° West 170 196 8,000  Level Miami Center
Wed 07:39:28 PM 25.4478 -78.1544 288° West 164 189 8,000  Level Miami Center
Wed 07:40:28 PM 25.4597 -78.2053 285° West 164 189 8,000  Level Miami Center
Wed 07:41:28 PM 25.4781 -78.2492 295° West 164 189 8,000 -50 Level Miami Center
Wed 07:42:28 PM 25.4881 -78.3022 282° West 169 194 7,900  Descending Miami Center
Wed 07:43:28 PM 25.5044 -78.3486 291° West 164 189 8,000 50 Climbing Miami Center
Wed 07:44:28 PM 25.5164 -78.3994 285° West 164 189 8,000 50 Level Miami Center
Wed 07:45:28 PM 25.5306 -78.4478 288° West 164 189 8,100  Climbing Miami Center
Wed 07:46:28 PM 25.5489 -78.4942 294° West 169 194 8,000 -50 Descending Miami Center
Wed 07:47:28 PM 25.5586 -78.5472 281° West 169 194 8,000  Level Miami Center
Wed 07:48:28 PM 25.5728 -78.5958 288° West 169 194 8,000  Level Miami Center
Wed 07:49:28 PM 25.5867 -78.6467 287° West 164 189 8,000  Level Miami Center
Wed 07:50:28 PM 25.6050 -78.6931 294° West 164 189 8,000  Level Miami Center
Wed 07:51:28 PM 25.6169 -78.7417 285° West 164 189 8,000  Level Miami Center
Wed 07:52:28 PM 25.6289 -78.7811 289° West 164 189 8,000  Level Miami Center
Wed 07:53:28 PM 25.6469 -78.8389 289° West 164 189 8,000  Level Miami Center
Wed 07:54:28 PM 25.6544 -78.8944 279° West 164 189 8,000  Level Miami Center
Wed 07:55:28 PM 25.6728 -78.9408 294° West 164 189 8,000  Level Miami Center
Wed 07:56:28 PM 25.6886 -78.9894 290° West 164 189 8,000  Level Miami Center
Wed 07:57:28 PM 25.7067 -79.0383 292° West 169 194 8,000 -250 Level Miami Center
Wed 07:58:28 PM 25.7164 -79.0939 281° West 169 194 7,500 -500 Descending Miami Center
Wed 07:59:28 PM 25.7364 -79.1472 293° West 169 194 7,000 -500 Descending Miami Center
Wed 08:00:28 PM 25.7522 -79.2006 288° West 179 206 6,500 -550 Descending Miami Center
Wed 08:01:28 PM 25.7600 -79.2514 280° West 184 212 5,900 -500 Descending Miami Center
Wed 08:02:28 PM 25.7756 -79.3142 285° West 184 212 5,500 -500 Descending Miami Center
Wed 08:03:28 PM 25.7914 -79.3653 289° West 184 212 4,900 -550 Descending Miami Center
Wed 08:04:28 PM 25.8072 -79.4256 286° West 189 217 4,400 -400 Descending Miami Center
Wed 08:05:28 PM 25.8167 -79.4764 282° West 189 217 4,100 -279 Descending Miami Center
Wed 08:05:54 PM 25.8244 -79.5089 285° West 184 212 4,000 -100 Descending Miami Center
Wed 08:06:28 PM 25.8281 -79.5344 279° West 184 212 4,000  Level Miami Center
Wed 08:06:43 PM 25.8342 -79.5508 293° West 176 203 4,000  Level Miami Center
Wed 08:07:44 PM 25.8478 -79.6042 286° West 176 203 4,000  Level Miami Center
Wed 08:08:28 PM 25.8597 -79.6389 291° West 184 212 4,000  Level Miami Center
Wed 08:08:45 PM 25.8550 -79.6575 254° West 174 200 4,000 -200 Level Miami Center
Wed 08:09:28 PM 25.8608 -79.6897 281° West 179 206 3,800 -393 Descending Miami Center
Wed 08:09:46 PM 25.8583 -79.7128 263° West 178 205 3,600 -600 Descending Miami Center
Wed 08:10:28 PM 25.8658 -79.7478 283° West 179 206 3,200 -492 Descending Miami Center
Wed 08:10:47 PM 25.8633 -79.7708 263° West 192 221 3,100 -200 Descending Miami Center
Wed 08:11:28 PM 25.8689 -79.8056 280° West 184 212 3,000 -100 Descending Miami Center
Wed 08:11:47 PM 25.8683 -79.8286 268° West 183 211 3,000  Level Miami Center
Wed 08:12:28 PM 25.8719 -79.8611 277° West 184 212 3,000  Level Miami Center
Wed 08:12:55 PM 25.8736 -79.8842 275° West 173 199 3,000 -200 Level Miami Center
Wed 08:13:28 PM 25.8792 -79.9119 283° West 179 206 2,800 -444 Descending Miami Center
Wed 08:13:49 PM 25.8767 -79.9350 263° West 176 203 2,600 -500 Descending Miami Center
Wed 08:14:28 PM 25.8800 -79.9697 276° West 179 206 2,300 -448 Descending Miami Center
Wed 08:14:56 PM 25.8794 -79.9997 269° West 190 219 2,100 -400 Descending Miami Center
Wed 08:15:28 PM 25.8872 -80.0275 287° West 184 212 1,900 -98 Descending Miami Center
Wed 08:15:57 PM 25.8908 -80.0556 278° West 174 200 2,000 63 Climbing Miami Center
Wed 08:17:04 PM 25.9042 -80.1111 285° West 175 201 2,000  Level Miami Center
Wed 08:18:05 PM 25.9239 -80.1603 294° West 164 189 2,000 -141 Level Miami Center
Wed 08:19:12 PM 25.9333 -80.2136 281° West 150 173 1,700 -281 Descending Miami Center
Wed 08:20:13 PM 25.9364 -80.2575 274° West 144 166 1,400 -385 Descending Miami Center
Wed 08:21:01 PM 25.9375 -80.2947 272° West 132 152 1,000 -436 Descending Miami Center
Wed 08:22:03 PM 25.9122 -80.3100 209° Southwest 130 150 600 -387 Descending Miami Center
Wed 08:24:00 PM 25.9074 -80.2782 90° East  Level Estimated

Login

Don't have an account? Register now (free) for customized features, flight alerts, and more!